Top Weather — 3FMM8 — position and weather

sailwx.info

Track history (hours):
 
Tides and Currents Weather Stations Pressure Air Temp Water Temp Dewpoint Dewpoint Depression Visibility Wind Speed Wind Dir Waves Ship Positions

Top Weather

Last reported at 2018-May-17 02:07 UTC. Time now 2018-May-20 10:24 UTC.
Position N 31°23' E 032°18'.

Length 197 m; draft 10.1 m.

Type: Cargo ship. MMSI: 373180000.

Date/timePositionNaut miles runAvg speedWind from/ knotsBaromVisibWave heightAir tempDewpointWater temp
2018-May-17 02:07N 31°23' E 032°18'0 0.2
2018-May-17 01:58N 31°23' E 032°18'0 0.0
2018-May-17 00:28N 31°23' E 032°18'1 0.2
2018-May-16 20:09N 31°23' E 032°18'1 5.6
2018-May-16 19:57N 31°24' E 032°18'17 9.1
2018-May-16 18:04N 31°38' E 032°05'1 8.4
2018-May-16 17:59N 31°38' E 032°05'5 9.7
2018-May-16 17:30N 31°42' E 032°01'611.7
2018-May-16 16:59N 31°46' E 031°56'2111.9
2018-May-16 15:14N 32°00' E 031°38'811.8
2018-May-16 14:32N 32°06' E 031°31'4012.1
2018-May-16 11:15N 32°33' E 030°57'412.0
2018-May-16 10:56N 32°36' E 030°54'711.9
2018-May-16 10:21N 32°41' E 030°48'711.9
2018-May-16 09:47N 32°46' E 030°43'311.8
2018-May-16 09:30N 32°48' E 030°40'611.7
2018-May-16 08:59N 32°52' E 030°35'  
2018-May-13 16:40N 37°25' E 025°55'212.4
2018-May-13 16:30N 37°27' E 025°54'612.2
2018-May-13 16:00N 37°33' E 025°51'  
2018-May-11 02:49N 46°10' E 030°46'412.3
2018-May-11 02:30N 46°14' E 030°45'6 9.3
2018-May-11 01:51N 46°19' E 030°41'1 3.8
2018-May-11 01:30N 46°19' E 030°40'0 0.5
2018-May-11 00:51N 46°20' E 030°39'0 0.0
2018-May-10 23:48N 46°20' E 030°39'0 0.0
2018-May-10 22:45N 46°20' E 030°39'0 0.0
2018-May-10 20:42N 46°20' E 030°39'0 0.0
2018-May-10 19:48N 46°20' E 030°39'0 0.0
2018-May-10 19:30N 46°20' E 030°39'0 0.0
2018-May-10 18:45N 46°20' E 030°39'0 0.0
2018-May-10 17:48N 46°20' E 030°39'0 0.0
2018-May-10 16:48N 46°20' E 030°39'0 0.0
2018-May-10 14:45N 46°20' E 030°39'0 0.0
2018-May-10 14:27N 46°20' E 030°39'0 0.0
2018-May-10 13:45N 46°20' E 030°39'0 0.0
2018-May-10 12:51N 46°20' E 030°39'0 0.0
2018-May-10 12:30N 46°20' E 030°39'0 0.0
2018-May-10 11:42N 46°20' E 030°39'0 0.0
2018-May-10 10:48N 46°20' E 030°39'0 0.0
2018-May-10 08:51N 46°20' E 030°39'0 0.0
2018-May-10 06:51N 46°20' E 030°39'0 0.0
2018-May-10 06:27N 46°20' E 030°39'0 0.0
2018-May-10 05:42N 46°20' E 030°39'0 0.0
2018-May-10 05:30N 46°20' E 030°39'0 0.0
2018-May-10 04:39N 46°20' E 030°39'0 0.0
2018-May-10 03:51N 46°20' E 030°39'0 0.0
2018-May-10 02:48N 46°20' E 030°39'0 0.0
2018-May-10 00:48N 46°20' E 030°39'0 0.0
2018-May-09 23:45N 46°20' E 030°39'0 0.0
2018-May-09 20:48N 46°20' E 030°39'0 0.0
2018-May-09 19:51N 46°20' E 030°39'0 0.0
2018-May-09 18:48N 46°20' E 030°39'0 0.0
2018-May-09 17:51N 46°20' E 030°39'0 0.0
2018-May-09 16:42N 46°20' E 030°39'0 0.0
2018-May-09 14:51N 46°20' E 030°39'0 0.0
2018-May-09 13:48N 46°20' E 030°39'0 0.0
2018-May-09 12:51N 46°20' E 030°39'0 0.0
2018-May-09 11:42N 46°20' E 030°39'0 0.0
2018-May-09 10:51N 46°20' E 030°39'0 0.0
2018-May-09 09:51N 46°20' E 030°39'0 0.0
2018-May-09 09:30N 46°20' E 030°39'0 0.0
2018-May-09 08:48N 46°20' E 030°39'0 0.0
2018-May-09 07:51N 46°20' E 030°39'0 0.0
2018-May-09 06:48N 46°20' E 030°39'0 0.0
2018-May-09 05:51N 46°20' E 030°39'0 0.0
2018-May-09 04:51N 46°20' E 030°39'0 0.0
2018-May-09 02:51N 46°20' E 030°39'0 0.0
2018-May-09 01:51N 46°20' E 030°39'0 0.0
2018-May-09 00:51N 46°20' E 030°39'0 0.0
2018-May-09 00:30N 46°20' E 030°39'0 0.0
2018-May-08 23:48N 46°20' E 030°39'0 0.0
2018-May-08 23:30N 46°20' E 030°39'0 0.0
2018-May-08 22:48N 46°20' E 030°39'0 0.0
2018-May-08 21:39N 46°20' E 030°39'0 0.0
2018-May-08 20:51N 46°20' E 030°39'0 0.0
2018-May-08 19:51N 46°20' E 030°39'0 0.0
2018-May-08 18:51N 46°20' E 030°39'0 0.0
2018-May-08 17:48N 46°20' E 030°39'0 0.0
2018-May-08 16:51N 46°20' E 030°39'0 0.0
2018-May-08 15:45N 46°20' E 030°39'0 0.0
2018-May-08 14:48N 46°20' E 030°39'0 0.0
2018-May-08 13:48N 46°20' E 030°39'0 0.0
2018-May-08 12:48N 46°20' E 030°39'0 0.0
2018-May-08 11:42N 46°20' E 030°39'0 0.0
2018-May-08 11:30N 46°20' E 030°39'0 0.0
2018-May-08 10:48N 46°20' E 030°39'0 0.0
2018-May-08 09:48N 46°20' E 030°39'0 0.0
2018-May-08 08:51N 46°20' E 030°39'0 0.0
2018-May-08 07:51N 46°20' E 030°39'0 0.0
2018-May-08 06:51N 46°20' E 030°39'0 0.0
2018-May-08 05:51N 46°20' E 030°39'0 0.0
2018-May-08 04:39N 46°20' E 030°39'0 0.0
2018-May-08 03:51N 46°20' E 030°39'0 0.0
2018-May-08 02:45N 46°20' E 030°39'0 0.0
2018-May-08 02:30N 46°20' E 030°39'0 0.0
2018-May-08 01:48N 46°20' E 030°39'0 0.0
2018-May-08 00:48N 46°20' E 030°39'0 0.0
2018-May-07 23:51N 46°20' E 030°39'0 0.0
2018-May-07 21:51N 46°20' E 030°39'0 0.0
2018-May-07 20:36N 46°20' E 030°39'0 0.0
2018-May-07 19:48N 46°20' E 030°39'0 0.0
2018-May-07 18:51N 46°20' E 030°39'0 0.0
2018-May-07 17:51N 46°20' E 030°39'0 0.0
2018-May-07 15:42N 46°20' E 030°39'0 0.1
2018-May-07 15:30N 46°20' E 030°39'1 1.4
2018-May-07 14:51N 46°21' E 030°39'0 1.1
2018-May-07 14:30N 46°21' E 030°38'0 0.0
2018-May-07 13:27N 46°21' E 030°38'0 0.0
2018-May-07 12:42N 46°21' E 030°38'0 0.0
2018-May-07 11:51N 46°21' E 030°38'0 0.0
2018-May-07 10:42N 46°21' E 030°38'0 0.0
2018-May-07 09:42N 46°21' E 030°38'0 0.0
2018-May-07 09:30N 46°21' E 030°38'0 0.0
2018-May-07 08:51N 46°21' E 030°38'0 0.0
2018-May-07 08:30N 46°21' E 030°38'0 0.0
2018-May-07 07:51N 46°21' E 030°38'0 0.0
2018-May-07 06:39N 46°21' E 030°38'0 0.0
2018-May-07 06:30N 46°21' E 030°38'0 0.0
2018-May-07 05:42N 46°21' E 030°38'0 0.0
2018-May-07 04:48N 46°21' E 030°38'0 0.0
2018-May-07 03:51N 46°21' E 030°38'0 0.0
2018-May-07 02:51N 46°21' E 030°38'  
Track history (hours):
 
Tides and Currents Weather Stations Pressure Air Temp Water Temp Dewpoint Dewpoint Depression Visibility Wind Speed Wind Dir Waves Ship Positions

Top Weather

Last reported at 2018-May-17 02:07 UTC. Time now 2018-May-20 10:24 UTC.
Position N 31°23' E 032°18'.

Length 197 m; draft 10.1 m.

Type: Cargo ship. MMSI: 373180000.

Date/timePositionNaut miles runAvg speedWind from/ knotsBaromVisibWave heightAir tempDewpointWater temp
2018-May-17 02:07N 31°23' E 032°18'0 0.2
2018-May-17 01:58N 31°23' E 032°18'0 0.0
2018-May-17 00:28N 31°23' E 032°18'1 0.2
2018-May-16 20:09N 31°23' E 032°18'1 5.6
2018-May-16 19:57N 31°24' E 032°18'17 9.1
2018-May-16 18:04N 31°38' E 032°05'1 8.4
2018-May-16 17:59N 31°38' E 032°05'5 9.7
2018-May-16 17:30N 31°42' E 032°01'611.7
2018-May-16 16:59N 31°46' E 031°56'2111.9
2018-May-16 15:14N 32°00' E 031°38'811.8
2018-May-16 14:32N 32°06' E 031°31'4012.1
2018-May-16 11:15N 32°33' E 030°57'412.0
2018-May-16 10:56N 32°36' E 030°54'711.9
2018-May-16 10:21N 32°41' E 030°48'711.9
2018-May-16 09:47N 32°46' E 030°43'311.8
2018-May-16 09:30N 32°48' E 030°40'611.7
2018-May-16 08:59N 32°52' E 030°35'  
2018-May-13 16:40N 37°25' E 025°55'212.4
2018-May-13 16:30N 37°27' E 025°54'612.2
2018-May-13 16:00N 37°33' E 025°51'  
2018-May-11 02:49N 46°10' E 030°46'412.3
2018-May-11 02:30N 46°14' E 030°45'6 9.3
2018-May-11 01:51N 46°19' E 030°41'1 3.8
2018-May-11 01:30N 46°19' E 030°40'0 0.5
2018-May-11 00:51N 46°20' E 030°39'0 0.0
2018-May-10 23:48N 46°20' E 030°39'0 0.0
2018-May-10 22:45N 46°20' E 030°39'0 0.0
2018-May-10 20:42N 46°20' E 030°39'0 0.0
2018-May-10 19:48N 46°20' E 030°39'0 0.0
2018-May-10 19:30N 46°20' E 030°39'0 0.0
2018-May-10 18:45N 46°20' E 030°39'0 0.0
2018-May-10 17:48N 46°20' E 030°39'0 0.0
2018-May-10 16:48N 46°20' E 030°39'0 0.0
2018-May-10 14:45N 46°20' E 030°39'0 0.0
2018-May-10 14:27N 46°20' E 030°39'0 0.0
2018-May-10 13:45N 46°20' E 030°39'0 0.0
2018-May-10 12:51N 46°20' E 030°39'0 0.0
2018-May-10 12:30N 46°20' E 030°39'0 0.0
2018-May-10 11:42N 46°20' E 030°39'0 0.0
2018-May-10 10:48N 46°20' E 030°39'0 0.0
2018-May-10 08:51N 46°20' E 030°39'0 0.0
2018-May-10 06:51N 46°20' E 030°39'0 0.0
2018-May-10 06:27N 46°20' E 030°39'0 0.0
2018-May-10 05:42N 46°20' E 030°39'0 0.0
2018-May-10 05:30N 46°20' E 030°39'0 0.0
2018-May-10 04:39N 46°20' E 030°39'0 0.0
2018-May-10 03:51N 46°20' E 030°39'0 0.0
2018-May-10 02:48N 46°20' E 030°39'0 0.0
2018-May-10 00:48N 46°20' E 030°39'0 0.0
2018-May-09 23:45N 46°20' E 030°39'0 0.0
2018-May-09 20:48N 46°20' E 030°39'0 0.0
2018-May-09 19:51N 46°20' E 030°39'0 0.0
2018-May-09 18:48N 46°20' E 030°39'0 0.0
2018-May-09 17:51N 46°20' E 030°39'0 0.0
2018-May-09 16:42N 46°20' E 030°39'0 0.0
2018-May-09 14:51N 46°20' E 030°39'0 0.0
2018-May-09 13:48N 46°20' E 030°39'0 0.0
2018-May-09 12:51N 46°20' E 030°39'0 0.0
2018-May-09 11:42N 46°20' E 030°39'0 0.0
2018-May-09 10:51N 46°20' E 030°39'0 0.0
2018-May-09 09:51N 46°20' E 030°39'0 0.0
2018-May-09 09:30N 46°20' E 030°39'0 0.0
2018-May-09 08:48N 46°20' E 030°39'0 0.0
2018-May-09 07:51N 46°20' E 030°39'0 0.0
2018-May-09 06:48N 46°20' E 030°39'0 0.0
2018-May-09 05:51N 46°20' E 030°39'0 0.0
2018-May-09 04:51N 46°20' E 030°39'0 0.0
2018-May-09 02:51N 46°20' E 030°39'0 0.0
2018-May-09 01:51N 46°20' E 030°39'0 0.0
2018-May-09 00:51N 46°20' E 030°39'0 0.0
2018-May-09 00:30N 46°20' E 030°39'0 0.0
2018-May-08 23:48N 46°20' E 030°39'0 0.0
2018-May-08 23:30N 46°20' E 030°39'0 0.0
2018-May-08 22:48N 46°20' E 030°39'0 0.0
2018-May-08 21:39N 46°20' E 030°39'0 0.0
2018-May-08 20:51N 46°20' E 030°39'0 0.0
2018-May-08 19:51N 46°20' E 030°39'0 0.0
2018-May-08 18:51N 46°20' E 030°39'0 0.0
2018-May-08 17:48N 46°20' E 030°39'0 0.0
2018-May-08 16:51N 46°20' E 030°39'0 0.0
2018-May-08 15:45N 46°20' E 030°39'0 0.0
2018-May-08 14:48N 46°20' E 030°39'0 0.0
2018-May-08 13:48N 46°20' E 030°39'0 0.0
2018-May-08 12:48N 46°20' E 030°39'0 0.0
2018-May-08 11:42N 46°20' E 030°39'0 0.0
2018-May-08 11:30N 46°20' E 030°39'0 0.0
2018-May-08 10:48N 46°20' E 030°39'0 0.0
2018-May-08 09:48N 46°20' E 030°39'0 0.0
2018-May-08 08:51N 46°20' E 030°39'0 0.0
2018-May-08 07:51N 46°20' E 030°39'0 0.0
2018-May-08 06:51N 46°20' E 030°39'0 0.0
2018-May-08 05:51N 46°20' E 030°39'0 0.0
2018-May-08 04:39N 46°20' E 030°39'0 0.0
2018-May-08 03:51N 46°20' E 030°39'0 0.0
2018-May-08 02:45N 46°20' E 030°39'0 0.0
2018-May-08 02:30N 46°20' E 030°39'0 0.0
2018-May-08 01:48N 46°20' E 030°39'0 0.0
2018-May-08 00:48N 46°20' E 030°39'0 0.0
2018-May-07 23:51N 46°20' E 030°39'0 0.0
2018-May-07 21:51N 46°20' E 030°39'0 0.0
2018-May-07 20:36N 46°20' E 030°39'0 0.0
2018-May-07 19:48N 46°20' E 030°39'0 0.0
2018-May-07 18:51N 46°20' E 030°39'0 0.0
2018-May-07 17:51N 46°20' E 030°39'0 0.0
2018-May-07 15:42N 46°20' E 030°39'0 0.1
2018-May-07 15:30N 46°20' E 030°39'1 1.4
2018-May-07 14:51N 46°21' E 030°39'0 1.1
2018-May-07 14:30N 46°21' E 030°38'0 0.0
2018-May-07 13:27N 46°21' E 030°38'0 0.0
2018-May-07 12:42N 46°21' E 030°38'0 0.0
2018-May-07 11:51N 46°21' E 030°38'0 0.0
2018-May-07 10:42N 46°21' E 030°38'0 0.0
2018-May-07 09:42N 46°21' E 030°38'0 0.0
2018-May-07 09:30N 46°21' E 030°38'0 0.0
2018-May-07 08:51N 46°21' E 030°38'0 0.0
2018-May-07 08:30N 46°21' E 030°38'0 0.0
2018-May-07 07:51N 46°21' E 030°38'0 0.0
2018-May-07 06:39N 46°21' E 030°38'0 0.0
2018-May-07 06:30N 46°21' E 030°38'0 0.0
2018-May-07 05:42N 46°21' E 030°38'0 0.0
2018-May-07 04:48N 46°21' E 030°38'0 0.0
2018-May-07 03:51N 46°21' E 030°38'0 0.0
2018-May-07 02:51N 46°21' E 030°38'  

Dump ship's entire track history